createdAt,value
2019-03-22T00:01:51.321Z,102062.98
2019-03-22T00:04:20.060Z,102064.41
2019-03-22T00:06:48.809Z,102067.80
2019-03-22T00:09:17.485Z,102065.78
2019-03-22T00:11:46.220Z,102063.98
2019-03-22T00:14:14.970Z,102063.95
2019-03-22T00:16:43.696Z,102068.20
2019-03-22T00:19:12.409Z,102066.24
2019-03-22T00:21:41.116Z,102061.42
2019-03-22T00:24:09.800Z,102058.68
2019-03-22T00:26:38.536Z,102059.66
2019-03-22T00:29:07.324Z,102063.00
2019-03-22T00:31:36.133Z,102061.53
2019-03-22T00:34:04.741Z,102061.06
2019-03-22T00:36:33.412Z,102067.23
2019-03-22T00:39:02.067Z,102065.88
2019-03-22T00:41:30.707Z,102053.28
2019-03-22T00:43:59.377Z,102059.03
2019-03-22T00:46:28.059Z,102060.70
2019-03-22T00:48:56.758Z,102058.42
2019-03-22T00:51:25.442Z,102059.09
2019-03-22T00:53:54.123Z,102057.48
2019-03-22T00:56:22.843Z,102058.62
2019-03-22T00:58:51.529Z,102053.55
2019-03-22T01:01:20.247Z,102050.97
2019-03-22T01:03:48.998Z,102051.81
2019-03-22T01:06:17.671Z,102045.47
2019-03-22T01:08:46.466Z,102044.20
2019-03-22T01:11:15.181Z,102046.52
2019-03-22T01:13:43.807Z,102048.85
2019-03-22T01:16:12.531Z,102047.49
2019-03-22T01:18:41.262Z,102052.77
2019-03-22T01:21:09.980Z,102048.28
2019-03-22T01:23:38.723Z,102040.50
2019-03-22T01:26:07.571Z,102040.63
2019-03-22T01:28:36.280Z,102043.45
2019-03-22T01:31:05.054Z,102044.06
2019-03-22T01:33:33.896Z,102037.34
2019-03-22T01:36:02.536Z,102043.25
2019-03-22T01:38:31.279Z,102046.91
2019-03-22T01:41:00.008Z,102050.97
2019-03-22T01:43:28.798Z,102044.23
2019-03-22T01:45:57.487Z,102042.40
2019-03-22T01:48:26.253Z,102046.84
2019-03-22T01:50:54.920Z,102046.18
2019-03-22T01:53:23.609Z,102051.33
2019-03-22T01:55:52.341Z,102049.37
2019-03-22T01:58:21.103Z,102051.73
2019-03-22T02:00:49.767Z,102049.64
2019-03-22T02:03:18.468Z,102047.67
2019-03-22T02:05:47.182Z,102042.85
2019-03-22T02:08:15.887Z,102047.63
2019-03-22T02:10:44.543Z,102040.91
2019-03-22T02:13:13.284Z,102045.38
2019-03-22T02:15:42.001Z,102052.30
2019-03-22T02:18:10.755Z,102048.16
2019-03-22T02:20:39.621Z,102047.31
2019-03-22T02:23:08.322Z,102039.98
2019-03-22T02:25:37.059Z,102028.28
2019-03-22T02:28:05.881Z,102027.70
2019-03-22T02:30:34.575Z,102024.84
2019-03-22T02:33:03.228Z,102023.94
2019-03-22T02:35:31.943Z,102021.91
2019-03-22T02:38:00.643Z,102023.78
2019-03-22T02:40:29.384Z,102019.66
2019-03-22T02:42:58.091Z,102015.77
2019-03-22T02:45:26.764Z,102017.27
2019-03-22T02:47:55.492Z,102013.89
2019-03-22T02:50:24.296Z,102014.08
2019-03-22T02:52:53.070Z,102014.13
2019-03-22T02:55:21.713Z,102019.15
2019-03-22T02:57:50.364Z,102022.20
2019-03-22T03:00:19.431Z,102020.53
2019-03-22T03:02:48.172Z,102018.42
2019-03-22T03:05:16.927Z,102012.00
2019-03-22T03:07:45.791Z,102008.66
2019-03-22T03:10:14.790Z,102011.89
2019-03-22T03:12:43.542Z,102001.51
2019-03-22T03:15:12.672Z,102002.53
2019-03-22T03:17:41.375Z,102004.07
2019-03-22T03:20:11.329Z,102001.91
2019-03-22T03:22:40.087Z,102011.75
2019-03-22T03:25:09.529Z,102008.18
2019-03-22T03:27:38.230Z,102002.83
2019-03-22T03:30:07.811Z,102002.52
2019-03-22T03:32:36.697Z,101997.44
2019-03-22T03:35:05.501Z,101996.27
2019-03-22T03:37:34.183Z,101999.58
2019-03-22T03:40:02.891Z,101997.23
2019-03-22T03:42:34.204Z,101994.98
2019-03-22T03:45:02.946Z,101997.78
2019-03-22T03:47:31.571Z,101988.09
2019-03-22T03:50:00.487Z,101986.67
2019-03-22T03:52:29.283Z,101987.95
2019-03-22T03:54:57.961Z,101987.95
2019-03-22T03:57:26.660Z,101989.42
2019-03-22T03:59:55.378Z,101990.34
2019-03-22T04:02:24.147Z,101992.20
2019-03-22T04:04:52.855Z,101992.98
2019-03-22T04:07:21.630Z,101992.83
2019-03-22T04:09:50.381Z,101989.44
2019-03-22T04:12:19.066Z,101992.83
2019-03-22T04:14:47.807Z,101993.25
2019-03-22T04:17:16.571Z,101993.59
2019-03-22T04:19:45.334Z,102002.75
2019-03-22T04:22:13.961Z,102005.30
2019-03-22T04:24:42.648Z,102004.19
2019-03-22T04:27:11.397Z,101998.92
2019-03-22T04:29:40.146Z,101993.17
2019-03-22T04:32:08.912Z,101995.92
2019-03-22T04:34:37.602Z,101995.81
2019-03-22T04:37:06.327Z,101989.59
2019-03-22T04:39:35.100Z,101985.97
2019-03-22T04:42:03.887Z,101993.51
2019-03-22T04:44:32.769Z,101996.56
2019-03-22T04:47:02.769Z,101997.39
2019-03-22T04:49:33.886Z,102003.11
2019-03-22T04:52:03.280Z,101997.73
2019-03-22T04:54:34.971Z,102003.45
2019-03-22T04:57:05.271Z,101997.81
2019-03-22T04:59:35.101Z,101993.51
2019-03-22T05:02:05.437Z,101990.44
2019-03-22T05:04:35.773Z,101981.17
2019-03-22T05:07:04.781Z,101983.91
2019-03-22T05:09:55.354Z,101989.64
2019-03-22T05:12:28.472Z,101985.68
2019-03-22T05:15:17.338Z,101987.54
2019-03-22T05:17:49.524Z,101998.14
2019-03-22T05:20:39.504Z,102002.59
2019-03-22T05:23:09.154Z,101997.59
2019-03-22T05:25:38.758Z,102000.54
2019-03-22T05:28:10.912Z,102010.97
2019-03-22T05:31:19.200Z,102012.70
2019-03-22T05:33:48.008Z,102021.56
2019-03-22T05:36:16.900Z,102021.13
2019-03-22T05:38:45.614Z,102027.75
2019-03-22T05:41:14.446Z,102030.84
2019-03-22T05:43:44.802Z,102028.25
2019-03-22T05:46:13.603Z,102026.13
2019-03-22T05:48:44.401Z,102029.32
2019-03-22T05:51:13.061Z,102036.03
2019-03-22T05:53:41.697Z,102040.16
2019-03-22T05:56:10.621Z,102050.00
2019-03-22T05:58:39.291Z,102053.28
2019-03-22T06:01:08.019Z,102045.05
2019-03-22T06:03:36.817Z,102056.20
2019-03-22T06:06:05.586Z,102063.48
2019-03-22T06:08:34.268Z,102063.48
2019-03-22T06:11:03.010Z,102069.13
2019-03-22T06:13:31.957Z,102070.45
2019-03-22T06:16:00.776Z,102070.34
2019-03-22T06:18:29.443Z,102077.86
2019-03-22T06:20:58.196Z,102077.81
2019-03-22T06:23:27.018Z,102079.55
2019-03-22T06:25:55.763Z,102074.56
2019-03-22T06:28:24.441Z,102069.26
2019-03-22T06:30:53.162Z,102077.66
2019-03-22T06:33:22.022Z,102073.67
2019-03-22T06:35:50.915Z,102067.49
2019-03-22T06:38:19.618Z,102074.16
2019-03-22T06:40:48.368Z,102078.58
2019-03-22T06:43:17.054Z,102075.36
2019-03-22T06:45:45.774Z,102075.44
2019-03-22T06:48:14.584Z,102076.84
2019-03-22T06:50:43.328Z,102075.48
2019-03-22T06:53:12.064Z,102080.67
2019-03-22T06:55:40.849Z,102080.23
2019-03-22T06:58:09.647Z,102084.80
2019-03-22T07:00:38.292Z,102088.38
2019-03-22T07:03:07.071Z,102084.95
2019-03-22T07:05:35.779Z,102091.59
2019-03-22T07:08:04.544Z,102090.52
2019-03-22T07:10:33.296Z,102084.53
2019-03-22T07:13:02.073Z,102083.34
2019-03-22T07:15:30.793Z,102075.76
2019-03-22T07:17:59.510Z,102078.38
2019-03-22T07:20:28.248Z,102089.67
2019-03-22T07:22:57.101Z,102087.94
2019-03-22T07:25:25.829Z,102078.78
2019-03-22T07:27:54.473Z,102082.41
2019-03-22T07:30:23.331Z,102076.88
2019-03-22T07:32:52.047Z,102080.19
2019-03-22T07:35:20.884Z,102076.30
2019-03-22T07:37:49.713Z,102081.73
2019-03-22T07:40:18.387Z,102078.20
2019-03-22T07:42:47.069Z,102077.64
2019-03-22T07:45:15.798Z,102079.38
2019-03-22T07:47:44.472Z,102077.76
2019-03-22T07:50:13.366Z,102073.20
2019-03-22T07:52:42.071Z,102077.58
2019-03-22T07:55:10.720Z,102075.03
2019-03-22T07:57:39.414Z,102071.48
2019-03-22T08:00:08.720Z,102061.80
2019-03-22T08:02:37.451Z,102063.66
2019-03-22T08:05:06.904Z,102065.88
2019-03-22T08:07:35.619Z,102060.47
2019-03-22T08:10:04.893Z,102056.73
2019-03-22T08:12:33.739Z,102057.28
2019-03-22T08:15:02.461Z,102059.94
2019-03-22T08:17:31.211Z,102049.80
2019-03-22T08:20:00.034Z,102062.98
2019-03-22T08:22:28.844Z,102063.98
2019-03-22T08:24:57.594Z,102056.14
2019-03-22T08:27:26.424Z,102042.33
2019-03-22T08:29:55.296Z,102040.06
2019-03-22T08:32:23.981Z,102032.55
2019-03-22T08:34:52.821Z,102026.72
2019-03-22T08:37:21.566Z,102026.33
2019-03-22T08:39:50.303Z,102031.30
2019-03-22T08:42:19.141Z,102031.34
2019-03-22T08:44:48.032Z,102036.23
2019-03-22T08:47:16.747Z,102035.33
2019-03-22T08:49:45.648Z,102029.48
2019-03-22T08:52:14.748Z,102024.09
2019-03-22T08:54:43.401Z,102022.22
2019-03-22T08:57:12.277Z,102022.97
2019-03-22T08:59:41.006Z,102025.34
2019-03-22T09:02:09.844Z,102024.72
2019-03-22T09:04:38.535Z,102023.30
2019-03-22T09:07:07.269Z,102011.84
2019-03-22T09:09:41.373Z,102011.50
2019-03-22T09:12:05.281Z,102004.86
2019-03-22T09:14:34.011Z,102006.31
2019-03-22T09:17:02.865Z,101991.80
2019-03-22T09:19:31.652Z,101992.28
2019-03-22T09:22:00.294Z,101978.40
2019-03-22T09:24:38.627Z,101977.53
2019-03-22T09:26:59.683Z,101980.83
2019-03-22T09:29:28.507Z,101975.13
2019-03-22T09:31:57.196Z,101977.05
2019-03-22T09:34:33.618Z,101978.41
2019-03-22T09:36:56.416Z,101973.77
2019-03-22T09:39:25.304Z,101969.34
2019-03-22T09:41:54.192Z,101968.94
2019-03-22T09:44:22.886Z,101973.23
2019-03-22T09:46:51.689Z,101964.67
2019-03-22T09:49:20.487Z,101962.84
2019-03-22T09:51:49.288Z,101962.84
2019-03-22T09:54:18.159Z,101957.73
2019-03-22T09:56:47.639Z,101948.95
2019-03-22T09:59:16.412Z,101948.64
2019-03-22T10:01:45.231Z,101948.08
2019-03-22T10:04:14.155Z,101942.94
2019-03-22T10:06:43.032Z,101942.98
2019-03-22T10:09:11.665Z,101945.62
2019-03-22T10:11:40.501Z,101931.31
2019-03-22T10:14:09.214Z,101937.34
2019-03-22T10:16:38.045Z,101926.56
2019-03-22T10:19:06.904Z,101925.33
2019-03-22T10:21:35.714Z,101918.32
2019-03-22T10:24:04.546Z,101918.95
2019-03-22T10:26:33.558Z,101924.75
2019-03-22T10:29:03.207Z,101916.80
2019-03-22T10:31:37.197Z,101911.77
2019-03-22T10:34:02.463Z,101904.80
2019-03-22T10:36:31.275Z,101907.43
2019-03-22T10:39:00.101Z,101904.52
2019-03-22T10:41:29.155Z,101901.07
2019-03-22T10:43:58.123Z,101900.63
2019-03-22T10:46:27.043Z,101900.95
2019-03-22T10:48:55.807Z,101897.11
2019-03-22T10:51:24.797Z,101896.25
2019-03-22T10:53:53.627Z,101890.66
2019-03-22T10:56:24.791Z,101892.47
2019-03-22T10:58:53.093Z,101883.78
2019-03-22T11:01:22.150Z,101879.67
2019-03-22T11:03:51.000Z,101880.78
2019-03-22T11:06:26.135Z,101879.23
2019-03-22T11:08:50.547Z,101871.29
2019-03-22T11:11:19.357Z,101882.32
2019-03-22T11:13:48.216Z,101875.80
2019-03-22T11:16:17.072Z,101877.84
2019-03-22T11:18:45.718Z,101873.85
2019-03-22T11:21:14.496Z,101869.01
2019-03-22T11:23:44.912Z,101866.14
2019-03-22T11:26:13.921Z,101867.06
2019-03-22T11:28:42.866Z,101863.07
2019-03-22T11:31:11.622Z,101857.91
2019-03-22T11:33:40.515Z,101856.30
2019-03-22T11:36:09.430Z,101847.82
2019-03-22T11:38:38.242Z,101849.14
2019-03-22T11:41:07.012Z,101839.77
2019-03-22T11:43:35.727Z,101835.28
2019-03-22T11:46:04.768Z,101826.39
2019-03-22T11:48:33.462Z,101827.00
2019-03-22T11:51:02.260Z,101820.03
2019-03-22T11:53:30.979Z,101819.02
2019-03-22T11:55:59.755Z,101812.69
2019-03-22T11:58:28.442Z,101812.58
2019-03-22T12:00:57.214Z,101814.71
2019-03-22T12:03:26.277Z,101805.27
2019-03-22T12:05:54.917Z,101802.98
2019-03-22T12:08:25.497Z,101808.45
2019-03-22T12:10:54.181Z,101800.55
2019-03-22T12:13:22.913Z,101797.57
2019-03-22T12:15:51.810Z,101790.31
2019-03-22T12:18:20.857Z,101784.23
2019-03-22T12:20:49.587Z,101785.63
2019-03-22T12:23:18.381Z,101775.34
2019-03-22T12:25:47.053Z,101779.95
2019-03-22T12:28:15.916Z,101767.84
2019-03-22T12:30:44.672Z,101772.72
2019-03-22T12:33:13.378Z,101759.27
2019-03-22T12:35:42.684Z,101759.66
2019-03-22T12:38:11.476Z,101760.02
2019-03-22T12:40:40.292Z,101757.26
2019-03-22T12:43:09.362Z,101753.71
2019-03-22T12:45:39.000Z,101752.91
2019-03-22T12:48:07.820Z,101748.83
2019-03-22T12:50:36.693Z,101748.19
2019-03-22T12:53:05.872Z,101745.27
2019-03-22T12:55:35.436Z,101745.83
2019-03-22T12:58:03.011Z,101736.73
2019-03-22T13:00:31.876Z,101736.36
2019-03-22T13:03:00.628Z,101729.98
2019-03-22T13:05:29.647Z,101723.02
2019-03-22T13:07:58.607Z,101713.57
2019-03-22T13:10:27.844Z,101713.57
2019-03-22T13:12:56.881Z,101707.70
2019-03-22T13:15:25.675Z,101705.00
2019-03-22T13:17:54.348Z,101701.24
2019-03-22T13:20:23.356Z,101694.42
2019-03-22T13:22:53.245Z,101691.06
2019-03-22T13:25:22.160Z,101689.55
2019-03-22T13:27:50.946Z,101689.09
2019-03-22T13:30:43.937Z,101681.52
2019-03-22T13:33:13.072Z,101679.38
2019-03-22T13:35:42.090Z,101676.05
2019-03-22T13:38:10.832Z,101679.88
2019-03-22T13:40:39.562Z,101679.95
2019-03-22T13:43:08.267Z,101674.95
2019-03-22T13:45:36.992Z,101670.28
2019-03-22T13:48:05.839Z,101660.41
2019-03-22T13:50:34.561Z,101667.62
2019-03-22T13:53:03.591Z,101669.31
2019-03-22T13:55:32.537Z,101657.91
2019-03-22T13:58:01.322Z,101660.49
2019-03-22T14:00:29.992Z,101663.13
2019-03-22T14:03:02.956Z,101651.05
2019-03-22T14:05:29.161Z,101652.58
2019-03-22T14:07:57.863Z,101656.03
2019-03-22T14:10:31.261Z,101639.80
2019-03-22T14:13:00.426Z,101641.36
2019-03-22T14:15:29.499Z,101644.74
2019-03-22T14:17:58.345Z,101637.48
2019-03-22T14:20:27.271Z,101632.48
2019-03-22T14:22:56.443Z,101630.71
2019-03-22T14:25:25.167Z,101614.98
2019-03-22T14:27:54.031Z,101628.23
2019-03-22T14:30:23.097Z,101615.55
2019-03-22T14:32:51.881Z,101620.04
2019-03-22T14:35:22.113Z,101617.96
2019-03-22T14:37:51.319Z,101617.48
2019-03-22T14:40:20.065Z,101609.56
2019-03-22T14:42:48.887Z,101619.66
2019-03-22T14:45:17.913Z,101603.91
2019-03-22T14:47:46.562Z,101602.28
2019-03-22T14:50:15.349Z,101597.44
2019-03-22T14:52:44.170Z,101594.72
2019-03-22T14:55:13.335Z,101590.25
2019-03-22T14:57:49.057Z,101585.95
2019-03-22T15:00:12.823Z,101582.09
2019-03-22T15:02:41.730Z,101579.45
2019-03-22T15:05:10.745Z,101572.19
2019-03-22T15:07:39.794Z,101568.05
2019-03-22T15:10:09.731Z,101570.55
2019-03-22T15:12:38.633Z,101560.22
2019-03-22T15:15:27.007Z,101564.31
2019-03-22T15:18:20.470Z,101561.94
2019-03-22T15:21:14.251Z,101558.96
2019-03-22T15:24:03.469Z,101556.17
2019-03-22T15:26:46.399Z,101555.87
2019-03-22T15:29:32.793Z,101551.74
2019-03-22T15:32:18.947Z,101549.03
2019-03-22T15:35:05.348Z,101549.45
2019-03-22T15:37:51.902Z,101539.92
2019-03-22T15:40:20.908Z,101542.23
2019-03-22T15:42:49.605Z,101539.09
2019-03-22T15:45:18.510Z,101534.95
2019-03-22T15:47:47.397Z,101534.25
2019-03-22T15:50:16.792Z,101534.98
2019-03-22T15:52:45.653Z,101537.08
2019-03-22T15:55:14.666Z,101528.35
2019-03-22T15:57:43.433Z,101529.33
2019-03-22T16:00:15.604Z,101521.39
2019-03-22T16:02:44.692Z,101521.15
2019-03-22T16:05:14.327Z,101516.16
2019-03-22T16:07:43.119Z,101516.42
2019-03-22T16:10:12.086Z,101516.23
2019-03-22T16:12:42.028Z,101513.66
2019-03-22T16:15:11.504Z,101510.16
2019-03-22T16:17:40.212Z,101504.33
2019-03-22T16:20:09.807Z,101503.44
2019-03-22T16:22:38.707Z,101500.57
2019-03-22T16:25:08.106Z,101499.19
2019-03-22T16:27:37.080Z,101498.81
2019-03-22T16:30:07.210Z,101494.58
2019-03-22T16:32:36.274Z,101490.05
2019-03-22T16:35:05.940Z,101490.01
2019-03-22T16:37:33.729Z,101488.74
2019-03-22T16:40:04.582Z,101495.42
2019-03-22T16:42:33.288Z,101490.63
2019-03-22T16:45:05.177Z,101483.35
2019-03-22T16:47:34.374Z,101479.71
2019-03-22T16:50:03.265Z,101483.23
2019-03-22T16:52:32.159Z,101482.69
2019-03-22T16:55:00.874Z,101477.24
2019-03-22T16:57:30.160Z,101484.28
2019-03-22T16:59:59.256Z,101480.73
2019-03-22T17:02:28.041Z,101478.92
2019-03-22T17:04:56.831Z,101472.74
2019-03-22T17:07:25.753Z,101472.02
2019-03-22T17:09:54.569Z,101477.47
2019-03-22T17:12:23.357Z,101473.13
2019-03-22T17:14:52.373Z,101469.66
2019-03-22T17:17:21.159Z,101475.98
2019-03-22T17:19:50.026Z,101476.34
2019-03-22T17:22:18.902Z,101475.88
2019-03-22T17:24:47.827Z,101478.91
2019-03-22T17:27:16.599Z,101472.61
2019-03-22T17:29:45.537Z,101469.84
2019-03-22T17:32:14.766Z,101469.17
2019-03-22T17:34:43.564Z,101467.47
2019-03-22T17:37:12.367Z,101461.92
2019-03-22T17:39:41.319Z,101467.66
2019-03-22T17:42:10.105Z,101459.20
2019-03-22T17:44:38.828Z,101457.67
2019-03-22T17:47:07.543Z,101460.20
2019-03-22T17:49:36.676Z,101460.41
2019-03-22T17:52:05.740Z,101456.30
2019-03-22T17:54:34.612Z,101459.01
2019-03-22T17:57:03.529Z,101462.30
2019-03-22T17:59:32.281Z,101455.13
2019-03-22T18:02:01.402Z,101458.50
2019-03-22T18:04:30.308Z,101455.10
2019-03-22T18:06:59.118Z,101456.38
2019-03-22T18:09:27.872Z,101455.86
2019-03-22T18:11:56.772Z,101459.42
2019-03-22T18:14:27.038Z,101452.19
2019-03-22T18:16:56.061Z,101457.34
2019-03-22T18:19:24.798Z,101462.31
2019-03-22T18:21:54.604Z,101465.33
2019-03-22T18:24:23.859Z,101466.95
2019-03-22T18:26:53.339Z,101468.15
2019-03-22T18:29:22.150Z,101476.41
2019-03-22T18:31:51.050Z,101470.34
2019-03-22T18:34:20.078Z,101470.69
2019-03-22T18:36:48.821Z,101464.31
2019-03-22T18:39:17.738Z,101464.22
2019-03-22T18:41:46.531Z,101464.37
2019-03-22T18:44:15.432Z,101464.88
2019-03-22T18:46:44.286Z,101462.77
2019-03-22T18:49:13.509Z,101467.86
2019-03-22T18:51:42.286Z,101469.47
2019-03-22T18:54:11.338Z,101470.22
2019-03-22T18:56:40.703Z,101472.17
2019-03-22T18:59:09.865Z,101469.02
2019-03-22T19:01:39.555Z,101471.76
2019-03-22T19:04:08.554Z,101475.31
2019-03-22T19:06:37.409Z,101474.73
2019-03-22T19:09:08.881Z,101471.05
2019-03-22T19:11:38.051Z,101472.59
2019-03-22T19:14:07.230Z,101480.83
2019-03-22T19:16:36.643Z,101478.71
2019-03-22T19:19:06.677Z,101476.35
2019-03-22T19:21:35.644Z,101477.02
2019-03-22T19:24:05.034Z,101486.25
2019-03-22T19:26:34.017Z,101486.25
2019-03-22T19:29:03.359Z,101485.88
2019-03-22T19:31:32.330Z,101482.97
2019-03-22T19:34:01.956Z,101478.44
2019-03-22T19:36:31.612Z,101473.33
2019-03-22T19:39:00.478Z,101474.44
2019-03-22T19:41:29.909Z,101476.05
2019-03-22T19:43:59.150Z,101478.16
2019-03-22T19:46:28.494Z,101476.73
2019-03-22T19:48:58.359Z,101473.02
2019-03-22T19:51:27.523Z,101471.64
2019-03-22T19:53:57.324Z,101477.67
2019-03-22T19:56:27.600Z,101482.88
2019-03-22T19:58:56.928Z,101475.41
2019-03-22T20:01:26.766Z,101477.07
2019-03-22T20:03:56.028Z,101473.30
2019-03-22T20:06:25.577Z,101472.59
2019-03-22T20:08:54.880Z,101482.77
2019-03-22T20:11:24.100Z,101478.16
2019-03-22T20:13:53.471Z,101474.84
2019-03-22T20:16:22.763Z,101478.13
2019-03-22T20:18:52.633Z,101476.04
2019-03-22T20:21:21.722Z,101475.11
2019-03-22T20:23:53.841Z,101477.50
2019-03-22T20:26:21.867Z,101485.06
2019-03-22T20:28:51.275Z,101479.09
2019-03-22T20:31:20.963Z,101477.06
2019-03-22T20:33:50.103Z,101484.95
2019-03-22T20:36:20.196Z,101477.91
2019-03-22T20:38:49.712Z,101478.55
2019-03-22T20:41:19.282Z,101480.09
2019-03-22T20:43:48.464Z,101477.66
2019-03-22T20:46:18.120Z,101477.87
2019-03-22T20:48:47.985Z,101482.53
2019-03-22T20:51:17.653Z,101485.80
2019-03-22T20:53:47.698Z,101474.14
2019-03-22T20:56:17.463Z,101475.95
2019-03-22T20:58:47.594Z,101468.61
2019-03-22T21:01:17.520Z,101470.58
2019-03-22T21:03:48.063Z,101476.08
2019-03-22T21:06:17.829Z,101470.91
2019-03-22T21:08:47.230Z,101469.58
2019-03-22T21:11:17.099Z,101468.78
2019-03-22T21:13:47.072Z,101470.70
2019-03-22T21:16:16.163Z,101474.38
2019-03-22T21:18:45.934Z,101470.50
2019-03-22T21:21:17.396Z,101472.29
2019-03-22T21:23:49.122Z,101465.60
2019-03-22T21:26:18.163Z,101471.03
2019-03-22T21:28:47.425Z,101468.87
2019-03-22T21:31:16.589Z,101469.75
2019-03-22T21:33:46.059Z,101466.27
2019-03-22T21:36:14.998Z,101474.81
2019-03-22T21:38:43.826Z,101470.86
2019-03-22T21:41:12.922Z,101471.42
2019-03-22T21:43:41.764Z,101470.66
2019-03-22T21:46:10.906Z,101468.92
2019-03-22T21:48:40.248Z,101469.02
2019-03-22T21:51:09.852Z,101460.04
2019-03-22T21:53:39.080Z,101461.68
2019-03-22T21:56:08.000Z,101456.65
2019-03-22T21:58:37.153Z,101461.58
2019-03-22T22:01:05.917Z,101459.02
2019-03-22T22:03:34.621Z,101462.66
2019-03-22T22:06:03.964Z,101459.12
2019-03-22T22:08:32.791Z,101455.16
2019-03-22T22:11:01.816Z,101454.88
2019-03-22T22:13:30.751Z,101447.34
2019-03-22T22:15:59.669Z,101452.22
2019-03-22T22:18:28.768Z,101449.59
2019-03-22T22:20:57.793Z,101444.75
2019-03-22T22:23:26.640Z,101446.18
2019-03-22T22:25:55.474Z,101440.92
2019-03-22T22:28:24.633Z,101439.17
2019-03-22T22:30:53.495Z,101434.80
2019-03-22T22:33:22.422Z,101433.62
2019-03-22T22:35:58.631Z,101435.91
2019-03-22T22:38:21.983Z,101439.38
2019-03-22T22:40:51.074Z,101440.25
2019-03-22T22:43:19.967Z,101439.87
2019-03-22T22:45:48.943Z,101434.98
2019-03-22T22:48:17.836Z,101433.37
2019-03-22T22:50:46.608Z,101434.84
2019-03-22T22:53:15.368Z,101432.04
2019-03-22T22:55:44.218Z,101432.04
2019-03-22T22:58:12.894Z,101419.78
2019-03-22T23:00:42.034Z,101423.20
2019-03-22T23:03:10.930Z,101413.86
2019-03-22T23:05:40.070Z,101415.30
2019-03-22T23:08:09.628Z,101408.33
2019-03-22T23:10:38.303Z,101405.63
2019-03-22T23:13:07.105Z,101399.39
2019-03-22T23:15:36.387Z,101402.03
2019-03-22T23:18:05.057Z,101399.45
2019-03-22T23:20:33.761Z,101396.82
2019-03-22T23:23:02.519Z,101396.03
2019-03-22T23:25:31.221Z,101392.48
2019-03-22T23:28:00.038Z,101392.97
2019-03-22T23:30:28.902Z,101392.66
2019-03-22T23:32:57.641Z,101394.05
2019-03-22T23:35:26.537Z,101394.39
2019-03-22T23:37:55.309Z,101395.30
2019-03-22T23:40:24.087Z,101395.27
2019-03-22T23:42:52.846Z,101390.92
2019-03-22T23:45:21.751Z,101394.03
2019-03-22T23:47:50.450Z,101394.02
2019-03-22T23:50:19.248Z,101393.14
2019-03-22T23:52:47.973Z,101394.19
2019-03-22T23:55:16.704Z,101391.95
2019-03-22T23:57:45.389Z,101391.06
